Saint Louis, Missouri
Traffic Map
Current Weather Conditions
Saint Louis, Missouri
Overcast
Overcast
39°
Feels Like: 33°
Wind Chill: 33° Ceiling: 9500
Heat Index: 39° Visibility: 10mi
Dew Point: 28° Wind: 9mph
Humidity: 65% Direction: 130° (SE)
Pressure: 30.07in Gusts: 0mph
Raw Report DataKCPS 010453Z AUTO 13008KT 10SM OVC095 04/M02 A3007 RMK AO2 SLP184 T00391022 TSNO
Traffic Incident Summary
Active as of:
Severity:
Category:
InformationThere was an issue retrieving the traffic information for this location. Please try a different location or try again shortly.
Advertisements
Track Severe Weather on mobile